Aérodrome :
LOGIN :

S'inscrire | Disclaimer

   EN    FR    IT 

 










Légende :    VFR   VFR Marginal   IFR   IFR Intensif   IFR Très Intensif
Visi : 
Plafond : 
>= 8 km
>= 3000ft
5 à 8 km
1000 à 3000 ft
1500m à 5 km
500 à 1000 ft
800 à 1500m
200 à 500 ft
< 800m
< 200 ft
Symboles :   Orages  Brouillard  Fortes neiges  Fortes précipitations  Vent > 20 kt
SIGMETs :   Divers  Orages  Givrage  Turbulence  Onde Orograph.  Cendres Volcan.






- Altitude de l'aérodrome : 755 ft
- Code IATA : DRS


EDDC - Dresden Klotzsche

DERNIER METAR :
  • 180720Z 25013G24KT 210V290 9999 FEW029 SCT046 07/02 Q1019 NOSIG

METARs EXPIRÉS :
  • 180650Z 25014G26KT 210V290 9999 SCT029 BKN040 07/02 Q1019 NOSIG
  • 180620Z 26013KT 220V290 9999 SCT030 SCT048 07/02 Q1018 TEMPO 26015G25KT
  • 180550Z 26013KT 220V280 9999 SCT030 07/02 Q1018 TEMPO 26015G25KT
  • 180520Z 25013KT 220V280 9999 SCT033 06/02 Q1018 TEMPO 25015G25KT
  • 180450Z 24011KT 220V290 9999 SCT033 07/02 Q1017 TEMPO 25015G25KT

TAF TAF EDDC
Valide du 18 à 06h jusqu'au 19 à 06h UTC


180500Z 1806/1906 23015G25KT 9999 SCT045
BECMG 1807/1809 25020G30KT
BECMG 1815/1817 23015G25KT



MET'MAP, la Météo Aéronautique d'un coup d'oeil ! - Copyright ORBIFLY Décembre 2007 - Disclaimer

ORBIFLY MET'MAP TEAM :

Programmation & Développement : Alexandra Zaïnal
Sur une idée originale de : Baudouin d'Aumeries
Assistance à la programmation : Marc-Olivier Méhu
Soutien technique & logistique : Manuel Goepfert

Contact : metmap@orbifly.com




SOURCES & CREDITS :

   NOAA